createdAt,value
2023-05-13T00:00:47.398Z,15.10
2023-05-13T00:05:48.998Z,15.04
2023-05-13T00:10:50.896Z,15.01
2023-05-13T00:15:52.998Z,14.91
2023-05-13T00:20:54.724Z,14.92
2023-05-13T00:25:56.404Z,14.77
2023-05-13T00:30:58.008Z,14.69
2023-05-13T00:35:59.844Z,14.56
2023-05-13T00:41:02.974Z,14.53
2023-05-13T00:46:05.013Z,14.50
2023-05-13T00:51:07.529Z,14.46
2023-05-13T00:56:09.199Z,14.38
2023-05-13T01:01:50.614Z,14.43
2023-05-13T01:07:12.475Z,14.40
2023-05-13T01:12:21.708Z,14.38
2023-05-13T01:17:32.145Z,14.39
2023-05-13T01:22:34.136Z,14.19
2023-05-13T01:27:36.058Z,14.14
2023-05-13T01:32:38.848Z,14.03
2023-05-13T01:37:41.520Z,13.95
2023-05-13T01:42:43.536Z,13.97
2023-05-13T01:47:47.788Z,13.94
2023-05-13T01:52:51.061Z,13.87
2023-05-13T01:57:53.022Z,13.84
2023-05-13T02:02:54.898Z,13.86
2023-05-13T02:07:56.599Z,13.85
2023-05-13T02:12:58.256Z,13.82
2023-05-13T02:17:59.974Z,13.85
2023-05-13T02:23:01.725Z,13.82
2023-05-13T02:28:03.493Z,13.86
2023-05-13T02:33:05.136Z,13.84
2023-05-13T02:38:09.874Z,13.83
2023-05-13T02:43:11.670Z,13.72
2023-05-13T02:48:26.862Z,13.85
2023-05-13T02:53:28.702Z,13.83
2023-05-13T02:58:35.229Z,13.72
2023-05-13T03:08:38.958Z,13.72
2023-05-13T03:13:40.593Z,13.78
2023-05-13T03:18:42.285Z,13.67
2023-05-13T03:23:45.601Z,13.57
2023-05-13T03:28:47.687Z,13.58
2023-05-13T03:33:50.575Z,13.56
2023-05-13T03:38:52.453Z,13.51
2023-05-13T03:43:54.807Z,13.44
2023-05-13T03:48:57.254Z,13.40
2023-05-13T03:54:02.376Z,13.30
2023-05-13T03:59:04.107Z,13.47
2023-05-13T04:04:05.867Z,13.28
2023-05-13T04:09:07.756Z,13.32
2023-05-13T04:14:10.979Z,13.18
2023-05-13T04:19:12.806Z,13.24
2023-05-13T04:24:15.215Z,13.22
2023-05-13T04:29:18.062Z,13.15
2023-05-13T04:34:19.953Z,13.15
2023-05-13T04:39:22.404Z,13.11
2023-05-13T04:44:24.132Z,13.15
2023-05-13T04:49:25.800Z,13.22
2023-05-13T04:54:28.197Z,13.24
2023-05-13T04:59:30.257Z,13.25
2023-05-13T05:04:31.975Z,13.25
2023-05-13T05:09:34.080Z,13.28
2023-05-13T05:14:35.727Z,13.40
2023-05-13T05:19:37.366Z,13.36
2023-05-13T05:24:39.454Z,13.07
2023-05-13T05:29:41.930Z,13.05
2023-05-13T05:34:43.742Z,13.00
2023-05-13T05:39:48.083Z,13.09
2023-05-13T05:44:49.961Z,13.13
2023-05-13T05:49:52.652Z,13.14
2023-05-13T05:54:54.509Z,13.13
2023-05-13T05:59:56.160Z,13.18
2023-05-13T06:04:57.943Z,13.27
2023-05-13T06:09:59.662Z,13.39
2023-05-13T06:15:01.815Z,13.47
2023-05-13T06:20:04.219Z,13.55
2023-05-13T06:25:06.102Z,13.58
2023-05-13T06:30:08.738Z,13.66
2023-05-13T06:35:11.241Z,13.73
2023-05-13T06:40:13.075Z,13.87
2023-05-13T06:45:18.564Z,14.03
2023-05-13T06:50:21.328Z,14.07
2023-05-13T06:55:23.188Z,14.10
2023-05-13T07:00:24.954Z,14.35
2023-05-13T07:05:27.058Z,14.57
2023-05-13T07:10:28.752Z,14.65
2023-05-13T07:15:30.562Z,14.78
2023-05-13T07:20:32.321Z,14.90
2023-05-13T07:25:34.109Z,15.06
2023-05-13T07:30:35.938Z,15.23
2023-05-13T07:35:37.855Z,15.38
2023-05-13T07:40:39.707Z,15.59
2023-05-13T07:45:42.387Z,15.75
2023-05-13T07:50:46.929Z,15.94
2023-05-13T07:55:48.651Z,16.29
2023-05-13T08:00:50.472Z,16.57
2023-05-13T08:05:52.325Z,16.78
2023-05-13T08:10:54.082Z,16.88
2023-05-13T08:15:55.949Z,16.98
2023-05-13T08:20:57.674Z,17.19
2023-05-13T08:25:59.404Z,17.40
2023-05-13T08:31:03.433Z,17.47
2023-05-13T08:36:05.730Z,17.82
2023-05-13T08:41:07.847Z,18.04
2023-05-13T08:46:11.942Z,18.24
2023-05-13T08:51:14.034Z,18.28
2023-05-13T08:56:17.203Z,18.42
2023-05-13T09:01:18.995Z,18.55
2023-05-13T09:06:20.965Z,18.82
2023-05-13T09:11:23.333Z,18.74
2023-05-13T09:16:25.997Z,18.91
2023-05-13T09:21:31.925Z,19.06
2023-05-13T09:26:33.647Z,19.14
2023-05-13T09:31:35.402Z,19.41
2023-05-13T09:36:39.330Z,19.44
2023-05-13T09:41:42.521Z,19.62
2023-05-13T09:46:46.903Z,19.82
2023-05-13T09:51:48.570Z,19.96
2023-05-13T09:56:58.120Z,19.87
2023-05-13T10:02:04.536Z,20.28
2023-05-13T10:07:07.330Z,20.15
2023-05-13T10:12:14.295Z,20.33
2023-05-13T10:17:21.326Z,20.49
2023-05-13T10:22:31.508Z,20.45
2023-05-13T10:27:34.442Z,20.46
2023-05-13T10:32:41.292Z,20.74
2023-05-13T10:38:03.673Z,21.00
2023-05-13T10:43:22.325Z,21.09
2023-05-13T10:48:24.537Z,20.81
2023-05-13T10:53:30.287Z,21.32
2023-05-13T10:58:34.168Z,20.73
2023-05-13T11:03:35.921Z,21.09
2023-05-13T11:08:42.315Z,20.96
2023-05-13T11:13:46.315Z,21.15
2023-05-13T11:18:49.774Z,21.20
2023-05-13T11:23:53.388Z,21.20
2023-05-13T11:28:59.522Z,21.52
2023-05-13T11:34:17.729Z,21.31
2023-05-13T11:39:22.598Z,21.06
2023-05-13T11:44:25.687Z,21.36
2023-05-13T11:49:47.229Z,21.49
2023-05-13T11:54:51.253Z,21.30
2023-05-13T12:00:08.277Z,21.80
2023-05-13T12:05:11.729Z,21.87
2023-05-13T12:10:13.482Z,21.40
2023-05-13T12:15:21.514Z,21.65
2023-05-13T12:20:24.601Z,21.45
2023-05-13T12:25:38.405Z,21.50
2023-05-13T12:30:42.515Z,21.61
2023-05-13T12:35:48.363Z,21.83
2023-05-13T12:40:51.507Z,22.23
2023-05-13T12:45:54.735Z,22.13
2023-05-13T12:50:56.624Z,22.02
2023-05-13T12:56:00.378Z,21.97
2023-05-13T13:01:02.083Z,21.66
2023-05-13T13:06:04.038Z,22.30
2023-05-13T13:11:06.353Z,22.05
2023-05-13T13:16:09.154Z,21.71
2023-05-13T13:21:11.057Z,22.49
2023-05-13T13:26:12.988Z,22.04
2023-05-13T13:31:16.168Z,22.19
2023-05-13T13:36:18.438Z,22.09
2023-05-13T13:41:20.047Z,22.04
2023-05-13T13:46:23.875Z,22.30
2023-05-13T13:51:25.591Z,22.13
2023-05-13T13:56:27.201Z,22.32
2023-05-13T14:01:29.028Z,22.52
2023-05-13T14:06:31.214Z,22.03
2023-05-13T14:11:33.551Z,21.80
2023-05-13T14:16:35.925Z,22.24
2023-05-13T14:21:37.625Z,22.49
2023-05-13T14:26:39.415Z,22.33
2023-05-13T14:31:41.082Z,22.44
2023-05-13T14:36:42.752Z,22.36
2023-05-13T14:41:46.358Z,22.50
2023-05-13T14:46:48.047Z,22.68
2023-05-13T14:51:49.814Z,22.42
2023-05-13T14:56:52.864Z,22.36
2023-05-13T15:01:54.687Z,22.60
2023-05-13T15:06:56.759Z,22.71
2023-05-13T15:11:58.403Z,22.52
2023-05-13T15:17:00.269Z,22.11
2023-05-13T15:22:01.994Z,22.09
2023-05-13T15:27:03.753Z,22.33
2023-05-13T15:32:06.943Z,21.93
2023-05-13T15:37:10.118Z,21.83
2023-05-13T15:42:11.751Z,22.28
2023-05-13T15:47:13.531Z,22.13
2023-05-13T15:52:20.113Z,22.04
2023-05-13T15:57:21.794Z,21.96
2023-05-13T16:02:23.837Z,22.09
2023-05-13T16:07:25.644Z,22.07
2023-05-13T16:12:27.258Z,22.12
2023-05-13T16:17:29.361Z,21.89
2023-05-13T16:22:38.058Z,21.93
2023-05-13T16:27:43.026Z,21.84
2023-05-13T16:32:47.625Z,21.72
2023-05-13T16:37:50.254Z,21.56
2023-05-13T16:42:52.001Z,21.64
2023-05-13T16:47:53.762Z,21.50
2023-05-13T16:52:57.039Z,21.48
2023-05-13T16:57:59.266Z,21.36
2023-05-13T17:03:01.423Z,21.36
2023-05-13T17:08:04.109Z,21.20
2023-05-13T17:13:05.742Z,21.13
2023-05-13T17:18:07.598Z,21.11
2023-05-13T17:23:09.390Z,20.97
2023-05-13T17:28:11.635Z,20.74
2023-05-13T17:33:13.372Z,20.66
2023-05-13T17:38:15.413Z,20.54
2023-05-13T17:43:18.428Z,20.42
2023-05-13T17:48:20.183Z,20.27
2023-05-13T17:53:21.885Z,20.14
2023-05-13T17:58:23.501Z,20.15
2023-05-13T18:03:25.277Z,19.74
2023-05-13T18:08:26.973Z,19.47
2023-05-13T18:13:29.950Z,19.39
2023-05-13T18:18:31.731Z,19.36
2023-05-13T18:23:35.741Z,19.27
2023-05-13T18:28:37.457Z,19.06
2023-05-13T18:33:39.120Z,19.10
2023-05-13T18:38:40.863Z,18.89
2023-05-13T18:43:42.560Z,18.49
2023-05-13T18:48:44.237Z,18.38
2023-05-13T18:53:47.451Z,18.30
2023-05-13T18:58:49.475Z,18.29
2023-05-13T19:03:52.387Z,17.85
2023-05-13T19:08:54.069Z,17.88
2023-05-13T19:13:55.667Z,17.98
2023-05-13T19:18:57.310Z,17.70
2023-05-13T19:23:58.958Z,17.51
2023-05-13T19:29:01.213Z,17.33
2023-05-13T19:34:02.840Z,17.31
2023-05-13T19:39:04.556Z,17.11
2023-05-13T19:44:06.248Z,17.31
2023-05-13T19:49:08.300Z,17.18
2023-05-13T19:54:11.797Z,17.07
2023-05-13T19:59:13.429Z,17.01
2023-05-13T20:04:15.274Z,16.95
2023-05-13T20:09:16.930Z,16.82
2023-05-13T20:14:28.849Z,16.74
2023-05-13T20:19:30.464Z,16.62
2023-05-13T20:24:32.087Z,16.57
2023-05-13T20:29:38.181Z,16.82
2023-05-13T20:34:40.841Z,16.77
2023-05-13T20:39:42.706Z,16.46
2023-05-13T20:44:46.608Z,16.48
2023-05-13T20:49:48.234Z,16.38
2023-05-13T20:54:52.266Z,16.40
2023-05-13T20:59:53.941Z,16.34
2023-05-13T21:04:55.761Z,16.16
2023-05-13T21:09:57.320Z,16.20
2023-05-13T21:14:58.973Z,16.24
2023-05-13T21:20:00.621Z,16.12
2023-05-13T21:25:02.325Z,16.10
2023-05-13T21:30:05.265Z,15.93
2023-05-13T21:35:07.519Z,15.89
2023-05-13T21:40:09.633Z,15.75
2023-05-13T21:45:13.057Z,15.70
2023-05-13T21:50:16.705Z,15.58
2023-05-13T21:55:18.515Z,15.57
2023-05-13T22:00:21.593Z,15.45
2023-05-13T22:05:23.857Z,15.31
2023-05-13T22:10:25.651Z,15.35
2023-05-13T22:15:27.415Z,15.20
2023-05-13T22:20:28.975Z,15.09
2023-05-13T22:25:30.651Z,15.54
2023-05-13T22:30:32.240Z,15.00
2023-05-13T22:35:36.484Z,15.17
2023-05-13T22:40:38.298Z,14.95
2023-05-13T22:45:39.950Z,14.57
2023-05-13T22:50:41.594Z,14.56
2023-05-13T22:55:44.095Z,14.56
2023-05-13T23:00:49.302Z,14.70
2023-05-13T23:05:52.381Z,14.54
2023-05-13T23:10:54.030Z,14.48
2023-05-13T23:15:55.875Z,14.50
2023-05-13T23:20:57.668Z,14.54
2023-05-13T23:25:59.418Z,14.33
2023-05-13T23:31:01.127Z,14.34
2023-05-13T23:36:02.909Z,14.35
2023-05-13T23:41:04.539Z,14.24
2023-05-13T23:46:06.186Z,14.38
2023-05-13T23:51:07.893Z,14.27
2023-05-13T23:56:09.926Z,14.22
